Vandling, Pennsylvania
Current Conditions -  °F | °C
As of 1:54 AM on Saturday 01 Nov 2014 (Local Time) from KAVP Reporting Station
Overcast Overcast  
Wind Chill: 43°   Ceiling: 2400
Heat Index: 47°   Visibility: 10mi
Dew Point: 36°   Wind: 8mph
Humidity: 66%   Direction: 40°NE
Pressure: 29.86"   Gusts: NA
Location:  41.6599°N, 75.4935°W
Report Text: KAVP 010554Z 04007KT 10SM OVC024 08/02 A2986 RMK AO2 SLP113 T00830022 10094 20083 56007
Loading
Personal Weather Stations






























Interactive Weather Map
Tropical Storm Tracking
New forecast layout! Learn more

10-Day Weather Forecast

Advertisements
Track Severe Weather on mobile